Share

Grayson, LA

11:45 PM CDT on April 23, 2014 (GMT -0500)
Monroe Regional (KMLU) Elev 79 ft | 32.51 °N, 92.04 °W | Change Station

Current weather conditions updated 52 minutes ago

Clear
Clear
64 °F
Feels Like 64 °F
N
0
Wind Variable Wind from North
Sunrise 6:29 AM
Sunset 7:42 PM
Moon Waning Crescent

Tomorrow is forecast to be Warmer than today.

Pressure 29.91 in
Visibility 10.0 miles
Clouds Clear
Dew Point 47 °F
Humidity 54%
Rainfall 0.01 in
Snow Depth Not available.
UV 0 out of 16
Pollen 8.10 out of 12
Air Quality Not available.
Flu Activity Local Activity
METAR KMLU 240353Z AUTO 00000KT 10SM CLR 18/08 A2991 RMK AO2 SLP128 T01780083

More Conditions Fewer Conditions

Pressure 29.91 in
Visibility 10.0 miles
Clouds Clear
Dew Point 47 °F
Humidity 54%
Rainfall 0.01 in
Snow Depth Not available.
UV 0 out of 16
Pollen 8.10 out of 12
Air Quality Not available.
Flu Activity Local Activity
METAR KMLU 240353Z AUTO 00000KT 10SM CLR 18/08 A2991 RMK AO2 SLP128 T01780083

More Conditions Fewer Conditions

10-Day Weather Forecast

Almanac

Astronomy

Apr. 23, 2014 Rise Set
Actual Time 6:29 AM CDT 7:42 PM CDT
Civil Twilight 6:04 AM CDT 8:08 PM CDT
Nautical Twilight 5:34 AM CDT 8:38 PM CDT
Astronomical Twilight 5:02 AM CDT 9:10 PM CDT
Moon 2:40 AM CDT (4/23) 2:11 PM CDT (4/23)
Length of Visible Light 14h 03m
Length of Day
13h 12m
Tomorrow will be 1m 46s longer.
Waning Crescent, 29% of the Moon is Illuminated
Apr 24
Waning Crescent
Apr 29
New
May 6
First Quarter
May 14
Full
May 21
Last Quarter

Yesterday's Extremes

State Highs State Lows

Community

  • Stacked
    Stacked
  • Balance
    Balance
  • Nestled In
    Nestled In
  • Stunning Sunrise
    Stunning Sunrise
  • spring flowers
    spring flowers

WunderPhotos

Upload Photos

1,704,562 photos uploaded!

WunderBlogs® & News

Nearby

Snow Depth

Station Depth Elevation
No new snow has been reported.

Coastal Water Temperatures

Place Temperature
No Stations Reporting

Earthquake Activity

City Distance Mag. Time & Date
No recent earthquake activity has been reported nearby.
Minimum magnitude displayed is 2.5.

Nearby Weather Stations

Station Location Temp. Dew Point Humidity Wind Precip. Elev Updated Type
MesoWest GRAYSN , Clarks, LA 64 °F - - North  at  - 0.00 in / hr 178 ft 8:20 PM CDT MADIS
MesoWest OLLA , Olla, LA 66 °F - - North  at  - 0.00 in / hr 189 ft 8:35 PM CDT MADIS

Show More Stations Show Fewer Stations

What do you think?

We're not finished. Please let us know what you like, what you don't like, and what you are still missing.